Latest Coastal Weather Observations for Merimbula

IDN60701

Issued at 6:15 am EST Thursday 24 April 2014 (issued every 10 minutes, with the page automatically refreshed every 10 minutes)

About coastal observations | Map of coastal stations | Coastal observations for NSW | Marine services | Other Formats
Station Details ID: 069147 Name: MERIMBULA AIRPORT AWS Lat: -36.91 Lon: 149.90 Height: 1.5 m
Data from the previous 72 hours. | See also: Recent months at Merimbula
Date/Time
EST
Temp

°C
Wind Pressure Rain
since 9am
mm
Weather Cloud Vis
km
Sea
Height
m
Swell
Dir
 
Speed
knots
Gust
knots
hPa Trend Height
m
Period
s
Dir
24/06:00am 13.1 SSW 4 7 1010.1 - 0.6 - - 10 - - - -
24/05:30am 13.3 CALM 0 0 1009.9 - 0.6 - - 10 - - - -
24/05:00am 13.2 CALM 0 0 1010.0 - 0.6 - - 10 - - - -
24/04:30am 13.4 CALM 0 0 1010.1 - 0.6 - - 10 - - - -
24/04:00am 13.4 CALM 0 0 1010.1 - 0.6 - - 10 - - - -
24/03:30am 13.3 CALM 0 0 1010.2 - 0.6 - - 7 - - - -
24/03:00am 13.5 CALM 0 0 1010.5 - 0.6 - - 8 - - - -
24/02:42am 13.4 CALM 0 0 1010.8 - 0.6 - - 5 - - - -
24/02:30am 13.6 CALM 0 0 1010.8 - 0.6 - - 10 - - - -
24/02:08am 14.1 CALM 0 0 1011.1 - 0.6 - - 10 - - - -
24/02:00am 14.1 CALM 0 0 1011.1 - 0.6 - - 6 - - - -
24/01:54am 13.7 CALM 0 0 1011.2 - 0.6 - - 5 - - - -
24/01:41am 13.8 CALM 0 0 1011.3 - 0.6 - - 10 - - - -
24/01:30am 13.7 CALM 0 0 1011.4 - 0.6 - - 5 - - - -
24/01:25am 13.7 CALM 0 0 1011.4 - 0.6 - - 5 - - - -
24/01:00am 14.4 CALM 0 0 1011.5 - 0.6 - - 6 - - - -
24/12:30am 14.4 CALM 0 0 1011.6 - 0.6 - - 9 - - - -
24/12:00am 14.9 WNW 4 6 1011.8 - 0.6 - - 10 - - - -
 
Date/Time
EST
Temp

°C
Wind Pressure Rain
since 9am
mm
Weather Cloud Vis
km
Sea
Height
m
Swell
Dir
 
Speed
knots
Gust
knots
hPa Trend Height
m
Period
s
Dir
23/11:30pm 15.0 CALM 0 0 1011.9 - 0.6 - - 10 - - - -
23/11:00pm 15.4 CALM 0 0 1012.2 - 0.6 - - 10 - - - -
23/10:30pm 15.0 CALM 0 0 1012.3 - 0.6 - - 7 - - - -
23/10:00pm 15.1 CALM 0 0 1012.4 - 0.6 - - 9 - - - -
23/09:30pm 15.5 CALM 0 0 1012.4 - 0.6 - - 10 - - - -
23/09:00pm 15.7 CALM 0 0 1012.5 - 0.6 - - 10 - - - -
23/08:30pm 16.3 WNW 3 5 1012.7 - 0.6 - - 10 - - - -
23/08:00pm 16.8 NW 4 5 1012.7 - 0.6 - Partly cloudy 10 - - - -
23/07:30pm 17.1 NW 5 6 1012.6 - 0.6 - Partly cloudy 10 - - - -
23/07:00pm 17.2 NNW 4 6 1012.5 - 0.6 - Partly cloudy 10 - - - -
23/06:30pm 17.8 CALM 0 0 1012.3 - 0.6 - Partly cloudy 10 - - - -
23/06:00pm 17.8 CALM 0 0 1012.2 - 0.6 - Mostly clear 10 - - - -
23/05:30pm 18.5 WNW 5 7 1011.9 - 0.6 - - 10 - - - -
23/05:00pm 19.4 NW 5 7 1011.6 - 0.6 - - 10 - - - -
23/04:30pm 20.4 W 3 5 1011.4 - 0.6 - - 10 - - - -
23/04:00pm 20.3 NNE 5 7 1011.5 - 0.2 - Partly cloudy 10 - - - -
23/03:30pm 22.1 NNE 7 11 1011.5 - 0.2 - Partly cloudy 10 - - - -
23/03:00pm 23.2 NE 7 11 1011.6 - 0.2 - - 10 - - - -
23/02:30pm 23.0 NE 8 12 1011.7 - 0.2 - - 10 - - - -
23/02:00pm 23.3 ENE 8 11 1011.8 - 0.2 - - 10 - - - -
23/01:30pm 22.7 ENE 9 13 1012.2 - 0.2 - - 10 - - - -
23/01:00pm 22.5 ENE 10 14 1012.7 - 0.2 - - 10 - - - -
23/12:30pm 21.9 ENE 8 13 1013.5 - 0.2 - - 10 - - - -
23/12:00pm 21.3 NE 8 11 1014.2 - 0.2 - - 10 - - - -
23/11:30am 21.0 E 9 14 1014.9 - 0.0 - - 10 - - - -
23/11:00am 20.7 E 6 8 1015.3 - 0.0 - - 10 - - - -
23/10:30am 19.3 NNE 3 6 1015.5 - 0.0 - - 10 - - - -
23/10:00am 16.7 NNW 5 7 1015.9 - 0.0 - Partly cloudy 10 - - - -
23/09:30am 15.6 NNE 3 6 1016.2 - 0.0 - Partly cloudy 10 - - - -
23/09:00am 15.3 SSW 5 7 1017.4 - 1.0 - Mostly cloudy 10 - - - -
23/08:30am 15.2 NNE 1 9 1016.9 - 1.0 - Partly cloudy 10 - - - -
23/08:00am 14.4 NNE 1 5 1017.0 - 0.8 - Partly cloudy 6 - - - -
23/07:30am 14.2 CALM 0 2 1017.4 - 0.2 - Partly cloudy 10 - - - -
23/07:00am 14.1 WNW 1 5 1016.9 - 0.2 - Partly cloudy 10 - - - -
23/06:30am 13.7 CALM 0 0 1016.7 - 0.2 - Partly cloudy 10 - - - -
23/06:00am 13.4 CALM 0 0 1017.0 - 0.2 - Mostly cloudy 10 - - - -
23/05:30am 13.1 CALM 0 0 1016.7 - 0.2 - Partly cloudy 10 - - - -
23/05:00am 13.6 SSW 3 7 1016.9 - 0.2 - Partly cloudy 10 - - - -
23/04:30am 13.8 NW 6 7 1016.9 - 0.2 - Partly cloudy 10 - - - -
23/04:00am 13.5 CALM 0 0 1016.5 - 0.0 - - 10 - - - -
23/03:30am 13.0 SW 3 5 1016.3 - 0.0 - Partly cloudy 10 - - - -
23/03:00am 12.9 CALM 0 0 1016.2 - 0.0 - - 10 - - - -
23/02:30am 13.2 CALM 0 0 1016.5 - 0.0 - Partly cloudy 10 - - - -
23/02:00am 13.1 CALM 0 0 1016.9 - 0.0 - Partly cloudy 10 - - - -
23/01:30am 12.8 CALM 0 0 1016.9 - 0.0 - Partly cloudy 10 - - - -
23/01:00am 12.6 CALM 0 0 1016.8 - 0.0 - Partly cloudy 10 - - - -
23/12:30am 12.4 CALM 0 0 1016.9 - 0.0 - - 10 - - - -
23/12:00am 12.9 CALM 0 0 1016.7 - 0.0 - - 10 - - - -
 
Date/Time
EST
Temp

°C
Wind Pressure Rain
since 9am
mm
Weather Cloud Vis
km
Sea
Height
m
Swell
Dir
 
Speed
knots
Gust
knots
hPa Trend Height
m
Period
s
Dir
22/11:30pm 13.3 CALM 0 0 1016.4 - 0.0 - - 10 - - - -
22/11:00pm 13.6 SSW 6 8 1016.5 - 0.0 - - 10 - - - -
22/10:30pm 13.4 SSW 6 8 1016.5 - 0.0 - - 10 - - - -
22/10:00pm 13.2 SSW 6 8 1016.2 - 0.0 - - 10 - - - -
22/09:30pm 12.9 SW 5 5 1016.1 - 0.0 - - 10 - - - -
22/09:00pm 13.5 WSW 4 5 1016.2 - 0.0 - - 10 - - - -
22/08:30pm 13.8 WNW 5 6 1015.9 - 0.0 - - 10 - - - -
22/08:00pm 14.3 WSW 4 5 1015.8 - 0.0 - - 10 - - - -
22/07:30pm 14.7 SW 4 6 1015.8 - 0.0 - - 10 - - - -
22/07:00pm 15.2 WNW 2 5 1015.5 - 0.0 - - 10 - - - -
22/06:30pm 16.3 CALM 0 0 1015.4 - 0.0 - - 10 - - - -
22/06:00pm 16.8 CALM 0 0 1015.1 - 0.0 - - 10 - - - -
22/05:30pm 18.2 NW 1 5 1014.8 - 0.0 - - 10 - - - -
22/05:00pm 19.5 E 4 5 1014.5 - 0.0 - - 10 - - - -
22/04:30pm 20.1 ESE 5 7 1014.5 - 0.0 - - 10 - - - -
22/04:00pm 20.4 ESE 6 9 1014.4 - 0.0 - - 10 - - - -
22/03:30pm 20.9 SE 7 9 1014.4 - 0.0 - - 10 - - - -
22/03:00pm 21.4 SE 9 13 1014.3 - 0.0 - - 10 - - - -
22/02:30pm 23.0 SE 7 10 1014.1 - 0.0 - - 10 - - - -
22/02:00pm 22.8 SSE 6 9 1014.0 - 0.0 - - 10 - - - -
22/01:30pm 22.0 SE 8 12 1014.1 - 0.0 - - 10 - - - -
22/01:00pm 21.5 SE 9 13 1014.1 - 0.0 - - 10 - - - -
22/12:30pm 21.0 SE 10 14 1014.3 - 0.0 - - 10 - - - -
22/12:00pm 21.6 CALM 0 0 1014.0 - 0.0 - - 10 - - - -
22/11:30am 21.0 CALM 0 1 1014.0 - 0.0 - - 10 - - - -
22/11:00am 20.9 CALM 0 0 1014.5 - 0.0 - - 10 - - - -
22/10:30am 20.0 CALM 0 0 1014.7 - 0.0 - - 10 - - - -
22/10:00am 19.3 CALM 0 0 1015.0 - 0.0 - - 10 - - - -
22/09:30am 17.7 W 2 4 1015.4 - 0.0 - - 10 - - - -
22/09:00am 16.7 W 3 5 1015.7 - 0.0 - - 10 - - - -
22/08:30am 15.5 WNW 4 5 1015.7 - 0.0 - - 10 - - - -
22/08:00am 13.7 CALM 0 0 1015.7 - 0.0 - - 10 - - - -
22/07:30am 12.0 WSW 2 5 1015.5 - 0.0 - - 10 - - - -
22/07:00am 11.5 SW 2 5 1015.3 - 0.0 - - 10 - - - -
22/06:30am 11.1 CALM 0 0 1015.0 - 0.0 - - 10 - - - -
22/06:00am 11.0 CALM 0 0 1015.1 - 0.0 - - 10 - - - -
22/05:30am 11.7 NW 3 5 1015.2 - 0.0 - - 10 - - - -
22/05:00am 12.5 NW 6 8 1015.4 - 0.0 - - 10 - - - -
22/04:30am 11.4 SW 2 4 1015.4 - 0.0 - - 10 - - - -
22/04:00am 11.5 SW 4 5 1015.5 - 0.0 - - 10 - - - -
22/03:30am 10.7 CALM 0 0 1015.4 - 0.0 - - 10 - - - -
22/03:00am 11.1 CALM 0 0 1015.6 - 0.0 - - 10 - - - -
22/02:30am 11.4 CALM 0 0 1015.7 - 0.0 - - 10 - - - -
22/02:00am 13.0 NNE 1 4 1016.1 - 0.0 - - 10 - - - -
22/01:30am 13.5 NNE 3 6 1016.2 - 0.0 - - 10 - - - -
22/01:00am 14.1 WNW 8 9 1016.7 - 0.0 - - 10 - - - -
22/12:30am 14.0 WNW 6 8 1017.0 - 0.0 - - 10 - - - -
22/12:00am 13.6 WNW 6 7 1017.1 - 0.0 - - 10 - - - -
 
Date/Time
EST
Temp

°C
Wind Pressure Rain
since 9am
mm
Weather Cloud Vis
km
Sea
Height
m
Swell
Dir
 
Speed
knots
Gust
knots
hPa Trend Height
m
Period
s
Dir
21/11:30pm 14.3 NW 6 8 1017.4 - 0.0 - - 10 - - - -
21/11:00pm 13.7 NW 6 7 1017.7 - 0.0 - - 10 - - - -
21/10:30pm 13.0 WNW 3 5 1018.0 - 0.0 - - 10 - - - -
21/10:00pm 13.2 WNW 1 4 1018.3 - 0.0 - - 10 - - - -
21/09:30pm 13.8 NW 4 6 1018.6 - 0.0 - - 10 - - - -
21/09:00pm 14.5 NW 5 6 1018.7 - 0.0 - - 10 - - - -
21/08:30pm 15.0 WNW 4 6 1018.8 - 0.0 - - 10 - - - -
21/08:00pm 15.9 WNW 4 6 1018.7 - 0.0 - - 10 - - - -
21/07:30pm 16.8 NNW 6 9 1018.7 - 0.0 - - 10 - - - -
21/07:00pm 17.2 N 7 10 1018.6 - 0.0 - - 10 - - - -
21/06:30pm 17.2 N 7 12 1018.5 - 0.0 - - 10 - - - -
21/06:00pm 17.2 N 6 9 1018.2 - 0.0 - - 10 - - - -
21/05:30pm 17.3 N 5 8 1018.1 - 0.0 - - 10 - - - -
21/05:00pm 17.7 N 5 6 1018.1 - 0.0 - - 10 - - - -
21/04:30pm 18.2 N 6 10 1018.0 - 0.0 - - 10 - - - -
21/04:00pm 18.6 NNE 6 10 1018.1 - 0.0 - - 10 - - - -
21/03:30pm 19.2 NE 6 9 1018.4 - 0.0 - - 10 - - - -
21/03:00pm 19.8 NNE 6 8 1018.5 - 0.0 - - 10 - - - -
21/02:30pm 19.9 ENE 7 10 1018.5 - 0.0 - - 10 - - - -
21/02:00pm 20.0 ENE 6 9 1018.6 - 0.0 - - 10 - - - -
21/01:30pm 20.4 ENE 7 11 1018.7 - 0.0 - - 10 - - - -
21/01:00pm 19.7 ENE 5 8 1019.0 - 0.0 - - 10 - - - -
21/12:30pm 20.7 ENE 6 9 1019.4 - 0.0 - - 10 - - - -
21/12:00pm 20.1 E 6 9 1019.7 - 0.0 - - 10 - - - -
21/11:30am 20.9 E 5 8 1020.0 - 0.0 - - 10 - - - -
21/11:00am 20.3 NW 3 6 1020.6 - 0.0 - - 10 - - - -
21/10:30am 19.9 W 2 6 1020.8 - 0.0 - - 10 - - - -
21/10:00am 18.8 W 5 7 1021.0 - 0.0 - - 10 - - - -
21/09:30am 17.9 W 5 7 1021.2 - 0.0 - - 10 - - - -
21/09:00am 16.9 WNW 6 8 1021.3 - 0.0 - - 10 - - - -
21/08:30am 15.2 WNW 4 6 1021.2 - 0.0 - - 10 - - - -
21/08:00am 13.1 NW 5 7 1021.0 - 0.0 - - 10 - - - -
21/07:30am 11.4 NW 5 7 1020.7 - 0.0 - - 10 - - - -
21/07:00am 10.0 WNW 6 7 1020.5 - 0.0 - - 10 - - - -
21/06:30am 9.4 WNW 6 7 1020.2 - 0.0 - - 10 - - - -

Other Formats:

Comma delimited format used in spreadsheet applications
http://www.bom.gov.au/fwo/IDN60701/IDN60701.95929.axf

JavaScript Object Notation format (JSON) in row-major order
http://www.bom.gov.au/fwo/IDN60701/IDN60701.95929.json